sensor_id;sensor_type;location;lat;lon;timestamp;pressure;altitude;pressure_sealevel;temperature;humidity
3082;BME280;1551;51.046;7.010;2023-04-26T00:01:51;101184.41;;;6.07;73.45
3082;BME280;1551;51.046;7.010;2023-04-26T00:04:41;101191.06;;;5.99;73.47
3082;BME280;1551;51.046;7.010;2023-04-26T00:07:30;101190.88;;;5.87;73.11
3082;BME280;1551;51.046;7.010;2023-04-26T00:10:19;101191.53;;;5.79;74.39
3082;BME280;1551;51.046;7.010;2023-04-26T00:13:08;101191.34;;;5.68;74.75
3082;BME280;1551;51.046;7.010;2023-04-26T00:15:57;101193.63;;;5.54;74.94
3082;BME280;1551;51.046;7.010;2023-04-26T00:18:46;101195.22;;;5.48;75.85
3082;BME280;1551;51.046;7.010;2023-04-26T00:21:37;101195.13;;;5.43;74.65
3082;BME280;1551;51.046;7.010;2023-04-26T00:24:26;101200.38;;;5.52;75.95
3082;BME280;1551;51.046;7.010;2023-04-26T00:27:15;101196.19;;;5.54;75.86
3082;BME280;1551;51.046;7.010;2023-04-26T00:30:05;101196.25;;;5.59;75.64
3082;BME280;1551;51.046;7.010;2023-04-26T00:32:54;101198.00;;;5.62;74.94
3082;BME280;1551;51.046;7.010;2023-04-26T00:35:42;101195.53;;;5.65;75.03
3082;BME280;1551;51.046;7.010;2023-04-26T00:38:32;101193.72;;;5.59;74.63
3082;BME280;1551;51.046;7.010;2023-04-26T00:41:22;101186.88;;;5.55;74.26
3082;BME280;1551;51.046;7.010;2023-04-26T00:44:12;101182.59;;;5.52;75.20
3082;BME280;1551;51.046;7.010;2023-04-26T00:47:01;101188.63;;;5.57;74.91
3082;BME280;1551;51.046;7.010;2023-04-26T00:49:50;101151.13;;;5.43;74.94
3082;BME280;1551;51.046;7.010;2023-04-26T00:52:40;101172.53;;;5.57;75.45
3082;BME280;1551;51.046;7.010;2023-04-26T00:55:29;101190.38;;;5.60;75.17
3082;BME280;1551;51.046;7.010;2023-04-26T00:58:19;101186.16;;;5.62;75.11
3082;BME280;1551;51.046;7.010;2023-04-26T01:01:08;101182.69;;;5.57;75.36
3082;BME280;1551;51.046;7.010;2023-04-26T01:03:59;101181.72;;;5.50;75.22
3082;BME280;1551;51.046;7.010;2023-04-26T01:06:49;101187.50;;;5.43;75.85
3082;BME280;1551;51.046;7.010;2023-04-26T01:09:38;101178.91;;;5.37;77.37
3082;BME280;1551;51.046;7.010;2023-04-26T01:12:28;101181.28;;;5.28;77.50
3082;BME280;1551;51.046;7.010;2023-04-26T01:15:17;101190.69;;;5.32;77.59
3082;BME280;1551;51.046;7.010;2023-04-26T01:18:06;101195.94;;;5.41;77.20
3082;BME280;1551;51.046;7.010;2023-04-26T01:20:56;101206.94;;;5.41;76.95
3082;BME280;1551;51.046;7.010;2023-04-26T01:23:45;101195.06;;;5.40;76.17
3082;BME280;1551;51.046;7.010;2023-04-26T01:26:34;101193.25;;;5.33;75.90
3082;BME280;1551;51.046;7.010;2023-04-26T01:29:23;101196.56;;;5.31;76.27
3082;BME280;1551;51.046;7.010;2023-04-26T01:32:12;101210.94;;;5.30;76.33
3082;BME280;1551;51.046;7.010;2023-04-26T01:35:02;101226.03;;;5.24;75.77
3082;BME280;1551;51.046;7.010;2023-04-26T01:37:51;101194.66;;;5.19;76.56
3082;BME280;1551;51.046;7.010;2023-04-26T01:40:40;101187.84;;;5.17;76.76
3082;BME280;1551;51.046;7.010;2023-04-26T01:43:34;101195.72;;;4.90;76.41
3082;BME280;1551;51.046;7.010;2023-04-26T01:46:23;101189.56;;;4.77;76.56
3082;BME280;1551;51.046;7.010;2023-04-26T01:49:12;101186.84;;;4.68;77.12
3082;BME280;1551;51.046;7.010;2023-04-26T01:52:01;101185.88;;;4.63;77.80
3082;BME280;1551;51.046;7.010;2023-04-26T01:54:50;101179.75;;;4.55;77.27
3082;BME280;1551;51.046;7.010;2023-04-26T01:57:38;101178.97;;;4.56;76.91
3082;BME280;1551;51.046;7.010;2023-04-26T02:00:28;101175.66;;;4.60;76.82
3082;BME280;1551;51.046;7.010;2023-04-26T02:03:17;101188.22;;;4.56;77.10
3082;BME280;1551;51.046;7.010;2023-04-26T02:06:06;101181.56;;;4.59;76.69
3082;BME280;1551;51.046;7.010;2023-04-26T02:08:55;101189.88;;;4.52;77.08
3082;BME280;1551;51.046;7.010;2023-04-26T02:11:44;101186.31;;;4.46;77.69
3082;BME280;1551;51.046;7.010;2023-04-26T02:14:34;101184.81;;;4.54;78.44
3082;BME280;1551;51.046;7.010;2023-04-26T02:17:24;101180.59;;;4.54;77.68
3082;BME280;1551;51.046;7.010;2023-04-26T02:20:15;101175.25;;;4.42;77.98
3082;BME280;1551;51.046;7.010;2023-04-26T02:23:04;101183.78;;;4.46;77.89
3082;BME280;1551;51.046;7.010;2023-04-26T02:25:53;101187.78;;;4.36;78.57
3082;BME280;1551;51.046;7.010;2023-04-26T02:28:42;101187.66;;;4.32;78.71
3082;BME280;1551;51.046;7.010;2023-04-26T02:31:31;101187.22;;;4.48;78.80
3082;BME280;1551;51.046;7.010;2023-04-26T02:34:20;101189.00;;;4.52;78.35
3082;BME280;1551;51.046;7.010;2023-04-26T02:37:09;101180.59;;;4.54;77.79
3082;BME280;1551;51.046;7.010;2023-04-26T02:39:58;101178.78;;;4.49;77.02
3082;BME280;1551;51.046;7.010;2023-04-26T02:42:47;101176.16;;;4.46;77.09
3082;BME280;1551;51.046;7.010;2023-04-26T02:45:40;101179.50;;;4.43;77.51
3082;BME280;1551;51.046;7.010;2023-04-26T02:48:32;101177.72;;;4.39;77.27
3082;BME280;1551;51.046;7.010;2023-04-26T02:51:21;101124.81;;;4.15;77.44
3082;BME280;1551;51.046;7.010;2023-04-26T02:54:10;101170.78;;;4.32;77.99
3082;BME280;1551;51.046;7.010;2023-04-26T02:57:00;101176.03;;;4.38;77.08
3082;BME280;1551;51.046;7.010;2023-04-26T02:59:49;101167.25;;;4.24;77.42
3082;BME280;1551;51.046;7.010;2023-04-26T03:02:38;101167.88;;;4.15;77.84
3082;BME280;1551;51.046;7.010;2023-04-26T03:05:27;101154.69;;;3.93;77.77
3082;BME280;1551;51.046;7.010;2023-04-26T03:08:17;101147.75;;;3.86;78.23
3082;BME280;1551;51.046;7.010;2023-04-26T03:11:06;101163.53;;;4.10;78.17
3082;BME280;1551;51.046;7.010;2023-04-26T03:13:56;101166.09;;;4.11;77.46
3082;BME280;1551;51.046;7.010;2023-04-26T03:16:45;101161.91;;;4.13;77.64
3082;BME280;1551;51.046;7.010;2023-04-26T03:19:36;101166.75;;;4.03;77.50
3082;BME280;1551;51.046;7.010;2023-04-26T03:22:27;101169.75;;;3.88;77.45
3082;BME280;1551;51.046;7.010;2023-04-26T03:25:16;101161.06;;;3.77;78.30
3082;BME280;1551;51.046;7.010;2023-04-26T03:28:05;101170.97;;;3.70;78.58
3082;BME280;1551;51.046;7.010;2023-04-26T03:30:54;101170.00;;;3.65;78.72
3082;BME280;1551;51.046;7.010;2023-04-26T03:33:43;101165.56;;;3.56;79.34
3082;BME280;1551;51.046;7.010;2023-04-26T03:36:32;101160.44;;;3.53;79.55
3082;BME280;1551;51.046;7.010;2023-04-26T03:39:21;101166.38;;;3.55;78.92
3082;BME280;1551;51.046;7.010;2023-04-26T03:42:11;101165.47;;;3.52;78.75
3082;BME280;1551;51.046;7.010;2023-04-26T03:45:01;101169.41;;;3.42;79.32
3082;BME280;1551;51.046;7.010;2023-04-26T03:47:51;101164.59;;;3.51;79.81
3082;BME280;1551;51.046;7.010;2023-04-26T03:50:41;101169.00;;;3.58;78.97
3082;BME280;1551;51.046;7.010;2023-04-26T03:53:30;101154.69;;;3.60;78.98
3082;BME280;1551;51.046;7.010;2023-04-26T03:56:18;101162.28;;;3.60;79.16
3082;BME280;1551;51.046;7.010;2023-04-26T03:59:07;101164.91;;;3.63;78.44
3082;BME280;1551;51.046;7.010;2023-04-26T04:01:59;101172.31;;;3.56;78.42
3082;BME280;1551;51.046;7.010;2023-04-26T04:04:48;101165.38;;;3.48;78.81
3082;BME280;1551;51.046;7.010;2023-04-26T04:07:37;101165.16;;;3.41;79.53
3082;BME280;1551;51.046;7.010;2023-04-26T04:10:27;101168.66;;;3.44;79.80
3082;BME280;1551;51.046;7.010;2023-04-26T04:13:17;101166.06;;;3.43;79.97
3082;BME280;1551;51.046;7.010;2023-04-26T04:16:06;101169.53;;;3.46;80.17
3082;BME280;1551;51.046;7.010;2023-04-26T04:18:58;101169.56;;;3.48;80.11
3082;BME280;1551;51.046;7.010;2023-04-26T04:21:46;101169.00;;;3.58;79.67
3082;BME280;1551;51.046;7.010;2023-04-26T04:24:36;101168.91;;;3.55;78.91
3082;BME280;1551;51.046;7.010;2023-04-26T04:27:26;101178.28;;;3.59;79.43
3082;BME280;1551;51.046;7.010;2023-04-26T04:30:15;101177.38;;;3.56;79.49
3082;BME280;1551;51.046;7.010;2023-04-26T04:33:05;101180.88;;;3.61;79.32
3082;BME280;1551;51.046;7.010;2023-04-26T04:35:55;101186.72;;;3.58;78.98
3082;BME280;1551;51.046;7.010;2023-04-26T04:38:45;101184.06;;;3.54;79.60
3082;BME280;1551;51.046;7.010;2023-04-26T04:41:36;101185.63;;;3.48;79.26
3082;BME280;1551;51.046;7.010;2023-04-26T04:44:25;101190.91;;;3.58;80.34
3082;BME280;1551;51.046;7.010;2023-04-26T04:47:16;101185.28;;;3.68;80.12
3082;BME280;1551;51.046;7.010;2023-04-26T04:50:06;101191.22;;;3.70;79.65
3082;BME280;1551;51.046;7.010;2023-04-26T04:52:56;101196.97;;;3.64;79.10
3082;BME280;1551;51.046;7.010;2023-04-26T04:55:45;101192.50;;;3.54;79.25
3082;BME280;1551;51.046;7.010;2023-04-26T04:58:36;101196.97;;;3.64;79.30
3082;BME280;1551;51.046;7.010;2023-04-26T05:01:26;101193.66;;;3.65;78.60
3082;BME280;1551;51.046;7.010;2023-04-26T05:04:18;101203.78;;;3.67;78.34
3082;BME280;1551;51.046;7.010;2023-04-26T05:07:07;101200.63;;;3.75;78.58
3082;BME280;1551;51.046;7.010;2023-04-26T05:09:58;101212.56;;;3.79;78.53
3082;BME280;1551;51.046;7.010;2023-04-26T05:12:47;101213.56;;;3.84;77.81
3082;BME280;1551;51.046;7.010;2023-04-26T05:15:37;101220.50;;;3.93;77.90
3082;BME280;1551;51.046;7.010;2023-04-26T05:18:27;101218.13;;;3.99;78.25
3082;BME280;1551;51.046;7.010;2023-04-26T05:21:16;101219.00;;;4.01;78.54
3082;BME280;1551;51.046;7.010;2023-04-26T05:24:06;101219.06;;;4.02;78.75
3082;BME280;1551;51.046;7.010;2023-04-26T05:26:57;101224.53;;;4.19;78.60
3082;BME280;1551;51.046;7.010;2023-04-26T05:30:05;101226.50;;;4.31;78.67
3082;BME280;1551;51.046;7.010;2023-04-26T05:33:09;101229.50;;;4.50;78.18
3082;BME280;1551;51.046;7.010;2023-04-26T05:36:06;101227.41;;;4.70;78.29
3082;BME280;1551;51.046;7.010;2023-04-26T05:38:57;101219.09;;;4.75;77.39
3082;BME280;1551;51.046;7.010;2023-04-26T05:41:46;101227.78;;;4.86;77.50
3082;BME280;1551;51.046;7.010;2023-04-26T05:44:35;101239.69;;;4.91;76.25
3082;BME280;1551;51.046;7.010;2023-04-26T05:47:24;101232.97;;;4.91;76.68
3082;BME280;1551;51.046;7.010;2023-04-26T05:50:15;101236.56;;;5.02;75.86
3082;BME280;1551;51.046;7.010;2023-04-26T05:53:04;101246.06;;;5.11;76.17
3082;BME280;1551;51.046;7.010;2023-04-26T05:55:53;101243.75;;;5.23;75.67
3082;BME280;1551;51.046;7.010;2023-04-26T05:58:43;101251.53;;;5.30;75.82
3082;BME280;1551;51.046;7.010;2023-04-26T06:01:32;101252.66;;;5.44;75.60
3082;BME280;1551;51.046;7.010;2023-04-26T06:04:22;101258.06;;;5.61;75.89
3082;BME280;1551;51.046;7.010;2023-04-26T06:07:24;101256.72;;;5.78;75.34
3082;BME280;1551;51.046;7.010;2023-04-26T06:10:13;101253.59;;;5.91;75.57
3082;BME280;1551;51.046;7.010;2023-04-26T06:13:03;101264.09;;;6.09;75.22
3082;BME280;1551;51.046;7.010;2023-04-26T06:15:58;101247.41;;;6.27;74.73
3082;BME280;1551;51.046;7.010;2023-04-26T06:18:47;101253.84;;;6.57;74.53
3082;BME280;1551;51.046;7.010;2023-04-26T06:21:36;101257.50;;;6.74;73.72
3082;BME280;1551;51.046;7.010;2023-04-26T06:24:25;101257.63;;;6.85;73.37
3082;BME280;1551;51.046;7.010;2023-04-26T06:27:14;101263.94;;;7.11;73.21
3082;BME280;1551;51.046;7.010;2023-04-26T06:30:08;101268.53;;;7.38;72.42
3082;BME280;1551;51.046;7.010;2023-04-26T06:32:59;101263.69;;;7.59;71.92
3082;BME280;1551;51.046;7.010;2023-04-26T06:35:48;101240.03;;;7.71;71.63
3082;BME280;1551;51.046;7.010;2023-04-26T06:38:38;101266.00;;;8.20;70.24
3082;BME280;1551;51.046;7.010;2023-04-26T06:41:27;101273.03;;;8.47;69.62
3082;BME280;1551;51.046;7.010;2023-04-26T06:44:16;101269.00;;;8.72;68.31
3082;BME280;1551;51.046;7.010;2023-04-26T06:47:05;101269.97;;;8.93;66.92
3082;BME280;1551;51.046;7.010;2023-04-26T06:49:57;101278.63;;;9.18;66.51
3082;BME280;1551;51.046;7.010;2023-04-26T06:52:46;101280.38;;;9.31;65.92
3082;BME280;1551;51.046;7.010;2023-04-26T06:55:35;101268.56;;;9.60;64.62
3082;BME280;1551;51.046;7.010;2023-04-26T06:58:24;101272.06;;;9.93;63.91
3082;BME280;1551;51.046;7.010;2023-04-26T07:01:13;101267.81;;;10.04;62.47
3082;BME280;1551;51.046;7.010;2023-04-26T07:04:03;101261.91;;;10.23;61.56
3082;BME280;1551;51.046;7.010;2023-04-26T07:06:52;101261.91;;;10.59;61.01
3082;BME280;1551;51.046;7.010;2023-04-26T07:09:42;101266.97;;;10.92;59.67
3082;BME280;1551;51.046;7.010;2023-04-26T07:12:30;101274.66;;;10.94;58.84
3082;BME280;1551;51.046;7.010;2023-04-26T07:15:19;101276.34;;;11.01;58.34
3082;BME280;1551;51.046;7.010;2023-04-26T07:18:08;101276.31;;;11.13;57.56
3082;BME280;1551;51.046;7.010;2023-04-26T07:20:59;101269.44;;;11.23;56.27
3082;BME280;1551;51.046;7.010;2023-04-26T07:23:52;101267.69;;;11.31;56.74
3082;BME280;1551;51.046;7.010;2023-04-26T07:26:41;101273.63;;;11.46;56.73
3082;BME280;1551;51.046;7.010;2023-04-26T07:29:30;101269.31;;;11.51;56.39
3082;BME280;1551;51.046;7.010;2023-04-26T07:32:19;101268.44;;;11.55;56.44
3082;BME280;1551;51.046;7.010;2023-04-26T07:35:09;101264.78;;;12.02;55.33
3082;BME280;1551;51.046;7.010;2023-04-26T07:38:03;101266.31;;;12.25;53.66
3082;BME280;1551;51.046;7.010;2023-04-26T07:40:52;101262.88;;;12.29;53.45
3082;BME280;1551;51.046;7.010;2023-04-26T07:43:41;101267.16;;;12.27;52.19
3082;BME280;1551;51.046;7.010;2023-04-26T07:46:33;101271.59;;;12.03;53.01
3082;BME280;1551;51.046;7.010;2023-04-26T07:49:22;101264.06;;;11.77;53.15
3082;BME280;1551;51.046;7.010;2023-04-26T07:52:11;101269.19;;;11.80;53.55
3082;BME280;1551;51.046;7.010;2023-04-26T07:55:00;101270.94;;;11.77;52.92
3082;BME280;1551;51.046;7.010;2023-04-26T07:57:49;101270.06;;;11.79;52.76
3082;BME280;1551;51.046;7.010;2023-04-26T08:00:41;101267.38;;;11.96;52.09
3082;BME280;1551;51.046;7.010;2023-04-26T08:03:31;101270.91;;;11.80;52.11
3082;BME280;1551;51.046;7.010;2023-04-26T08:06:20;101258.88;;;11.91;52.70
3082;BME280;1551;51.046;7.010;2023-04-26T08:09:10;101261.91;;;12.41;52.09
3082;BME280;1551;51.046;7.010;2023-04-26T08:11:59;101255.84;;;12.51;50.47
3082;BME280;1551;51.046;7.010;2023-04-26T08:14:48;101256.69;;;12.50;50.66
3082;BME280;1551;51.046;7.010;2023-04-26T08:17:37;101256.56;;;12.64;50.51
3082;BME280;1551;51.046;7.010;2023-04-26T08:20:26;101258.38;;;12.53;50.11
3082;BME280;1551;51.046;7.010;2023-04-26T08:23:14;101259.19;;;12.61;50.02
3082;BME280;1551;51.046;7.010;2023-04-26T08:26:04;101264.31;;;12.59;49.40
3082;BME280;1551;51.046;7.010;2023-04-26T08:28:54;101263.69;;;12.34;48.85
3082;BME280;1551;51.046;7.010;2023-04-26T08:31:43;101260.38;;;12.17;49.03
3082;BME280;1551;51.046;7.010;2023-04-26T08:34:32;101262.13;;;12.14;48.86
3082;BME280;1551;51.046;7.010;2023-04-26T08:37:21;101261.03;;;12.47;48.99
3082;BME280;1551;51.046;7.010;2023-04-26T08:40:10;101265.09;;;12.70;48.61
3082;BME280;1551;51.046;7.010;2023-04-26T08:42:59;101265.09;;;12.69;47.86
3082;BME280;1551;51.046;7.010;2023-04-26T08:45:48;101264.25;;;12.64;47.92
3082;BME280;1551;51.046;7.010;2023-04-26T08:48:39;101269.13;;;12.92;47.43
3082;BME280;1551;51.046;7.010;2023-04-26T08:51:29;101262.03;;;13.16;46.89
3082;BME280;1551;51.046;7.010;2023-04-26T08:54:19;101253.38;;;13.26;46.21
3082;BME280;1551;51.046;7.010;2023-04-26T08:57:10;101265.59;;;13.02;46.31
3082;BME280;1551;51.046;7.010;2023-04-26T09:00:01;101263.88;;;13.03;45.56
3082;BME280;1551;51.046;7.010;2023-04-26T09:02:53;101260.59;;;12.90;46.29
3082;BME280;1551;51.046;7.010;2023-04-26T09:05:42;101269.25;;;12.80;45.77
3082;BME280;1551;51.046;7.010;2023-04-26T09:08:34;101268.31;;;12.89;45.09
3082;BME280;1551;51.046;7.010;2023-04-26T09:11:24;101266.22;;;13.26;44.50
3082;BME280;1551;51.046;7.010;2023-04-26T09:14:13;101272.31;;;13.19;44.02
3082;BME280;1551;51.046;7.010;2023-04-26T09:17:02;101260.38;;;13.12;44.28
3082;BME280;1551;51.046;7.010;2023-04-26T09:19:52;101262.03;;;13.19;44.31
3082;BME280;1551;51.046;7.010;2023-04-26T09:22:41;101268.84;;;13.87;44.05
3082;BME280;1551;51.046;7.010;2023-04-26T09:25:31;101265.00;;;14.15;43.62
3082;BME280;1551;51.046;7.010;2023-04-26T09:28:21;101266.16;;;13.94;43.19
3082;BME280;1551;51.046;7.010;2023-04-26T09:31:10;101268.91;;;13.82;42.78
3082;BME280;1551;51.046;7.010;2023-04-26T09:33:59;101265.53;;;13.78;42.54
3082;BME280;1551;51.046;7.010;2023-04-26T09:36:50;101259.69;;;13.69;41.67
3082;BME280;1551;51.046;7.010;2023-04-26T09:39:40;101247.16;;;14.04;41.14
3082;BME280;1551;51.046;7.010;2023-04-26T09:42:33;101258.44;;;14.51;41.50
3082;BME280;1551;51.046;7.010;2023-04-26T09:45:25;101246.53;;;14.43;40.94
3082;BME280;1551;51.046;7.010;2023-04-26T09:48:24;101236.31;;;14.39;41.34
3082;BME280;1551;51.046;7.010;2023-04-26T09:51:14;101242.38;;;14.82;40.85
3082;BME280;1551;51.046;7.010;2023-04-26T09:54:03;101250.09;;;15.28;40.60
3082;BME280;1551;51.046;7.010;2023-04-26T09:56:59;101240.28;;;15.47;40.77
3082;BME280;1551;51.046;7.010;2023-04-26T09:59:51;101238.31;;;15.95;40.05
3082;BME280;1551;51.046;7.010;2023-04-26T10:02:40;101239.09;;;16.33;37.39
3082;BME280;1551;51.046;7.010;2023-04-26T10:05:31;101243.34;;;16.70;37.04
3082;BME280;1551;51.046;7.010;2023-04-26T10:08:20;101242.22;;;16.46;36.73
3082;BME280;1551;51.046;7.010;2023-04-26T10:11:09;101230.47;;;15.21;36.26
3082;BME280;1551;51.046;7.010;2023-04-26T10:13:59;101233.34;;;15.06;36.66
3082;BME280;1551;51.046;7.010;2023-04-26T10:16:48;101234.38;;;15.39;35.88
3082;BME280;1551;51.046;7.010;2023-04-26T10:19:40;101223.66;;;15.17;35.32
3082;BME280;1551;51.046;7.010;2023-04-26T10:22:36;101227.47;;;16.51;35.73
3082;BME280;1551;51.046;7.010;2023-04-26T10:25:38;101235.47;;;16.76;34.42
3082;BME280;1551;51.046;7.010;2023-04-26T10:35:12;101221.25;;;15.89;33.63
3082;BME280;1551;51.046;7.010;2023-04-26T10:40:51;101225.69;;;16.53;34.39
3082;BME280;1551;51.046;7.010;2023-04-26T10:43:40;101216.66;;;17.00;32.69
3082;BME280;1551;51.046;7.010;2023-04-26T10:46:38;101220.28;;;16.94;31.88
3082;BME280;1551;51.046;7.010;2023-04-26T10:49:42;101217.69;;;17.25;33.88
3082;BME280;1551;51.046;7.010;2023-04-26T10:52:34;101217.53;;;17.60;33.38
3082;BME280;1551;51.046;7.010;2023-04-26T10:55:40;101223.44;;;17.64;33.81
3082;BME280;1551;51.046;7.010;2023-04-26T10:58:33;101219.34;;;16.97;34.01
3082;BME280;1551;51.046;7.010;2023-04-26T11:01:23;101225.19;;;17.34;34.18
3082;BME280;1551;51.046;7.010;2023-04-26T11:04:12;101231.66;;;17.49;33.74
3082;BME280;1551;51.046;7.010;2023-04-26T11:07:02;101220.78;;;17.65;32.63
3082;BME280;1551;51.046;7.010;2023-04-26T11:09:52;101212.69;;;16.88;32.67
3082;BME280;1551;51.046;7.010;2023-04-26T11:12:41;101219.69;;;17.15;33.20
3082;BME280;1551;51.046;7.010;2023-04-26T11:15:31;101213.44;;;17.23;32.88
3082;BME280;1551;51.046;7.010;2023-04-26T11:18:20;101207.34;;;16.94;33.48
3082;BME280;1551;51.046;7.010;2023-04-26T11:21:10;101187.28;;;17.61;33.42
3082;BME280;1551;51.046;7.010;2023-04-26T11:24:00;101193.91;;;17.42;33.02
3082;BME280;1551;51.046;7.010;2023-04-26T11:26:52;101205.03;;;16.53;33.51
3082;BME280;1551;51.046;7.010;2023-04-26T11:29:41;101203.09;;;16.61;34.41
3082;BME280;1551;51.046;7.010;2023-04-26T11:32:32;101193.13;;;16.46;33.02
3082;BME280;1551;51.046;7.010;2023-04-26T11:35:22;101190.13;;;16.93;33.67
3082;BME280;1551;51.046;7.010;2023-04-26T11:38:11;101190.84;;;16.69;32.98
3082;BME280;1551;51.046;7.010;2023-04-26T11:41:03;101197.59;;;16.39;33.30
3082;BME280;1551;51.046;7.010;2023-04-26T11:43:52;101186.44;;;15.70;33.92
3082;BME280;1551;51.046;7.010;2023-04-26T11:46:41;101181.38;;;15.65;33.83
3082;BME280;1551;51.046;7.010;2023-04-26T11:49:32;101184.69;;;15.70;33.93
3082;BME280;1551;51.046;7.010;2023-04-26T11:52:21;101182.41;;;15.94;33.57
3082;BME280;1551;51.046;7.010;2023-04-26T11:55:10;101184.22;;;15.90;33.26
3082;BME280;1551;51.046;7.010;2023-04-26T11:57:59;101182.63;;;16.54;33.48
3082;BME280;1551;51.046;7.010;2023-04-26T12:03:51;101187.97;;;17.67;31.69
3082;BME280;1551;51.046;7.010;2023-04-26T12:06:42;101180.38;;;18.14;30.19
3082;BME280;1551;51.046;7.010;2023-04-26T12:09:31;101184.06;;;18.33;31.07
3082;BME280;1551;51.046;7.010;2023-04-26T12:12:22;101187.66;;;18.78;30.83
3082;BME280;1551;51.046;7.010;2023-04-26T12:15:11;101186.97;;;18.73;29.75
3082;BME280;1551;51.046;7.010;2023-04-26T12:18:08;101188.94;;;18.67;29.91
3082;BME280;1551;51.046;7.010;2023-04-26T12:20:58;101196.66;;;18.17;30.01
3082;BME280;1551;51.046;7.010;2023-04-26T12:23:47;101190.63;;;17.64;30.82
3082;BME280;1551;51.046;7.010;2023-04-26T12:26:43;101192.44;;;17.61;31.16
3082;BME280;1551;51.046;7.010;2023-04-26T12:29:34;101190.03;;;18.61;31.10
3082;BME280;1551;51.046;7.010;2023-04-26T12:32:24;101190.03;;;19.31;30.55
3082;BME280;1551;51.046;7.010;2023-04-26T12:35:14;101191.16;;;19.47;29.73
3082;BME280;1551;51.046;7.010;2023-04-26T12:38:03;101194.09;;;20.24;28.92
3082;BME280;1551;51.046;7.010;2023-04-26T12:40:52;101183.69;;;19.82;28.77
3082;BME280;1551;51.046;7.010;2023-04-26T12:43:41;101199.13;;;19.42;28.38
3082;BME280;1551;51.046;7.010;2023-04-26T12:46:30;101184.69;;;17.89;30.03
3082;BME280;1551;51.046;7.010;2023-04-26T12:49:19;101183.28;;;18.56;29.52
3082;BME280;1551;51.046;7.010;2023-04-26T12:52:08;101177.25;;;18.80;28.97
3082;BME280;1551;51.046;7.010;2023-04-26T12:54:57;101172.75;;;19.30;29.78
3082;BME280;1551;51.046;7.010;2023-04-26T12:57:47;101182.16;;;19.10;29.20
3082;BME280;1551;51.046;7.010;2023-04-26T13:00:36;101180.66;;;19.50;29.08
3082;BME280;1551;51.046;7.010;2023-04-26T13:03:25;101176.75;;;19.61;29.17
3082;BME280;1551;51.046;7.010;2023-04-26T13:06:14;101173.91;;;19.46;28.88
3082;BME280;1551;51.046;7.010;2023-04-26T13:09:03;101175.50;;;19.27;29.17
3082;BME280;1551;51.046;7.010;2023-04-26T13:11:51;101166.69;;;18.61;29.11
3082;BME280;1551;51.046;7.010;2023-04-26T13:14:41;101166.41;;;17.38;30.82
3082;BME280;1551;51.046;7.010;2023-04-26T13:17:30;101172.88;;;16.94;30.81
3082;BME280;1551;51.046;7.010;2023-04-26T13:20:19;101166.78;;;16.66;31.64
3082;BME280;1551;51.046;7.010;2023-04-26T13:23:08;101177.72;;;16.75;32.20
3082;BME280;1551;51.046;7.010;2023-04-26T13:25:59;101176.66;;;17.13;31.76
3082;BME280;1551;51.046;7.010;2023-04-26T13:28:48;101177.53;;;18.47;30.86
3082;BME280;1551;51.046;7.010;2023-04-26T13:31:37;101174.84;;;18.74;29.74
3082;BME280;1551;51.046;7.010;2023-04-26T13:34:28;101165.69;;;18.39;30.85
3082;BME280;1551;51.046;7.010;2023-04-26T13:37:18;101182.03;;;18.16;30.59
3082;BME280;1551;51.046;7.010;2023-04-26T13:40:08;101182.78;;;17.94;30.55
3082;BME280;1551;51.046;7.010;2023-04-26T13:42:59;101181.03;;;16.48;32.10
3082;BME280;1551;51.046;7.010;2023-04-26T13:45:48;101173.47;;;16.08;32.62
3082;BME280;1551;51.046;7.010;2023-04-26T13:48:37;101167.25;;;16.47;33.23
3082;BME280;1551;51.046;7.010;2023-04-26T13:51:26;101174.34;;;17.02;32.35
3082;BME280;1551;51.046;7.010;2023-04-26T13:54:19;101167.97;;;16.20;33.69
3082;BME280;1551;51.046;7.010;2023-04-26T13:57:09;101160.03;;;15.94;33.67
3082;BME280;1551;51.046;7.010;2023-04-26T13:59:59;101163.59;;;15.89;33.50
3082;BME280;1551;51.046;7.010;2023-04-26T14:02:48;101162.41;;;16.02;33.73
3082;BME280;1551;51.046;7.010;2023-04-26T14:05:37;101164.00;;;16.07;32.98
3082;BME280;1551;51.046;7.010;2023-04-26T14:08:26;101160.44;;;16.13;33.12
3082;BME280;1551;51.046;7.010;2023-04-26T14:11:15;101157.06;;;16.09;32.58
3082;BME280;1551;51.046;7.010;2023-04-26T14:14:04;101159.84;;;16.68;32.85
3082;BME280;1551;51.046;7.010;2023-04-26T14:16:53;101154.78;;;17.23;32.39
3082;BME280;1551;51.046;7.010;2023-04-26T14:19:42;101161.06;;;17.14;32.31
3082;BME280;1551;51.046;7.010;2023-04-26T14:22:30;101154.81;;;17.22;32.01
3082;BME280;1551;51.046;7.010;2023-04-26T14:25:19;101149.56;;;17.25;31.47
3082;BME280;1551;51.046;7.010;2023-04-26T14:28:08;101154.25;;;17.12;31.50
3082;BME280;1551;51.046;7.010;2023-04-26T14:30:57;101148.84;;;17.47;30.58
3082;BME280;1551;51.046;7.010;2023-04-26T14:33:46;101155.69;;;16.62;31.03
3082;BME280;1551;51.046;7.010;2023-04-26T14:36:35;101150.03;;;16.14;32.24
3082;BME280;1551;51.046;7.010;2023-04-26T14:39:24;101158.59;;;16.50;32.55
3082;BME280;1551;51.046;7.010;2023-04-26T14:42:13;101154.66;;;16.69;32.62
3082;BME280;1551;51.046;7.010;2023-04-26T14:45:02;101152.13;;;16.66;31.52
3082;BME280;1551;51.046;7.010;2023-04-26T14:47:51;101149.75;;;16.59;31.82
3082;BME280;1551;51.046;7.010;2023-04-26T14:50:40;101155.50;;;16.99;32.10
3082;BME280;1551;51.046;7.010;2023-04-26T14:53:30;101141.50;;;17.06;31.28
3082;BME280;1551;51.046;7.010;2023-04-26T14:56:19;101143.66;;;16.90;30.75
3082;BME280;1551;51.046;7.010;2023-04-26T14:59:08;101138.00;;;17.07;30.87
3082;BME280;1551;51.046;7.010;2023-04-26T15:01:57;101131.75;;;17.14;31.32
3082;BME280;1551;51.046;7.010;2023-04-26T15:04:45;101131.97;;;17.36;31.36
3082;BME280;1551;51.046;7.010;2023-04-26T15:07:35;101129.00;;;17.20;31.78
3082;BME280;1551;51.046;7.010;2023-04-26T15:10:24;101128.34;;;16.84;31.28
3082;BME280;1551;51.046;7.010;2023-04-26T15:13:13;101120.94;;;17.01;31.70
3082;BME280;1551;51.046;7.010;2023-04-26T15:16:03;101125.69;;;16.86;31.28
3082;BME280;1551;51.046;7.010;2023-04-26T15:18:52;101114.41;;;17.17;31.61
3082;BME280;1551;51.046;7.010;2023-04-26T15:21:41;101124.38;;;17.02;31.07
3082;BME280;1551;51.046;7.010;2023-04-26T15:24:37;101125.53;;;16.92;31.33
3082;BME280;1551;51.046;7.010;2023-04-26T15:27:26;101112.59;;;16.63;31.42
3082;BME280;1551;51.046;7.010;2023-04-26T15:30:15;101121.19;;;16.31;31.53